Time;durP1;ratioP1;P1;durP2;ratioP2;P2;SDS_P1;SDS_P2;PMS_P1;PMS_P2;Temp;Humidity;BMP_temperature;BMP_pressure;BME280_temperature;BME280_humidity;BME280_pressure;Samples;Min_cycle;Max_cycle;Signal;HPM_P1;HPM_P2
2023/06/05 00:01:42;;;;;;;5.63;2.72;;;15.70;1.00;;;;;;5058903;28;20120;-64
2023/06/05 00:04:08;;;;;;;5.80;3.03;;;15.70;1.00;;;;;;5058016;28;20385;-64
2023/06/05 00:06:34;;;;;;;4.28;2.90;;;15.60;1.00;;;;;;5058096;28;20112;-64
2023/06/05 00:09:00;;;;;;;3.72;2.63;;;15.50;1.00;;;;;;5058680;28;20033;-64
2023/06/05 00:11:27;;;;;;;4.70;2.90;;;15.50;3.50;;;;;;5057877;28;20040;-64
2023/06/05 00:13:55;;;;;;;6.40;2.97;;;15.40;5.00;;;;;;5058520;28;20343;-63
2023/06/05 00:16:21;;;;;;;5.63;2.90;;;15.30;9.10;;;;;;5058395;28;20037;-63
2023/06/05 00:18:48;;;;;;;3.50;2.83;;;15.30;11.90;;;;;;5058431;28;20028;-63
2023/06/05 00:21:15;;;;;;;6.90;3.53;;;15.20;12.90;;;;;;5058549;28;20074;-63
2023/06/05 00:23:41;;;;;;;5.38;3.15;;;15.10;16.60;;;;;;5057636;28;20119;-63
2023/06/05 00:26:07;;;;;;;5.15;3.20;;;15.20;16.60;;;;;;5024715;28;20040;-63
2023/06/05 00:28:33;;;;;;;4.80;2.88;;;15.20;15.20;;;;;;5040939;28;20028;-63
2023/06/05 00:31:00;;;;;;;4.65;3.15;;;15.20;13.90;;;;;;5058429;28;20036;-63
2023/06/05 00:33:28;;;;;;;4.88;2.75;;;15.20;12.10;;;;;;5058312;28;20094;-63
2023/06/05 00:35:54;;;;;;;5.07;3.13;;;15.20;10.70;;;;;;5041198;28;20052;-63
2023/06/05 00:38:20;;;;;;;7.78;3.28;;;15.10;11.90;;;;;;5024329;28;20122;-63
2023/06/05 00:40:50;;;;;;;5.18;3.00;;;15.20;12.20;;;;;;5058342;28;20053;-63
2023/06/05 00:43:17;;;;;;;5.40;3.10;;;15.10;10.60;;;;;;5057151;28;20037;-63
2023/06/05 00:45:43;;;;;;;6.25;3.47;;;15.00;14.00;;;;;;5057891;28;20029;-63
2023/06/05 00:48:10;;;;;;;4.43;3.05;;;15.10;12.90;;;;;;5057815;28;20033;-63
2023/06/05 00:50:37;;;;;;;4.53;3.10;;;15.00;12.20;;;;;;5057653;28;20036;-63
2023/06/05 00:53:05;;;;;;;5.20;3.42;;;15.00;12.80;;;;;;5057726;28;20079;-63
2023/06/05 00:55:31;;;;;;;5.43;3.05;;;15.00;12.50;;;;;;5024345;28;20094;-63
2023/06/05 00:57:57;;;;;;;5.70;3.17;;;14.90;13.60;;;;;;5040437;28;20041;-63
2023/06/05 01:00:25;;;;;;;8.48;3.25;;;14.80;16.50;;;;;;5057706;28;20278;-63
2023/06/05 01:02:53;;;;;;;6.97;3.42;;;14.80;16.90;;;;;;5057889;28;20036;-64
2023/06/05 01:05:20;;;;;;;6.45;3.03;;;14.90;14.50;;;;;;5040492;28;20032;-63
2023/06/05 01:07:49;;;;;;;4.53;3.17;;;14.80;14.80;;;;;;5040389;28;20094;-62
2023/06/05 01:10:15;;;;;;;6.97;3.35;;;14.70;17.20;;;;;;5040703;28;20311;-62
2023/06/05 01:12:59;;;;;;;7.53;3.60;;;14.60;17.90;;;;;;5056807;28;20021;-63
2023/06/05 01:15:31;;;;;;;;;;;14.70;19.50;;;;;;5057156;28;20051;-63
2023/06/05 01:18:00;;;;;;;7.23;3.50;;;14.60;20.70;;;;;;5057792;28;19921;-63
2023/06/05 01:20:37;;;;;;;6.07;3.33;;;14.60;19.70;;;;;;5056694;28;20039;-63
2023/06/05 01:23:05;;;;;;;4.72;3.22;;;14.50;20.70;;;;;;5057475;28;20281;-63
2023/06/05 01:25:32;;;;;;;3.95;3.15;;;14.40;24.00;;;;;;5039950;28;20025;-63
2023/06/05 01:28:16;;;;;;;4.70;3.20;;;14.40;25.40;;;;;;5056441;28;20090;-63
2023/06/05 01:31:05;;;;;;;10.32;3.72;;;14.50;24.10;;;;;;5056919;28;20377;-63
2023/06/05 01:33:43;;;;;;;6.90;3.22;;;14.40;21.60;;;;;;5057269;28;20443;-63
2023/06/05 01:36:13;;;;;;;4.53;3.38;;;14.40;21.20;;;;;;5056940;28;20048;-62
2023/06/05 01:38:41;;;;;;;5.97;3.30;;;14.40;21.80;;;;;;5056306;28;20055;-63
2023/06/05 01:41:10;;;;;;;6.63;3.72;;;14.30;25.20;;;;;;5038767;28;20190;-62
2023/06/05 01:43:37;;;;;;;4.47;3.33;;;14.30;22.80;;;;;;5056031;28;20115;-64
2023/06/05 01:46:07;;;;;;;4.97;3.28;;;14.30;21.60;;;;;;5056071;28;20025;-63
2023/06/05 01:48:34;;;;;;;4.30;3.53;;;14.30;19.70;;;;;;5056155;28;20096;-62
2023/06/05 01:51:00;;;;;;;5.72;3.67;;;14.20;23.60;;;;;;5056889;28;20113;-62
2023/06/05 01:53:28;;;;;;;5.82;3.45;;;14.30;21.90;;;;;;5039742;28;20045;-62
2023/06/05 01:55:57;;;;;;;5.95;3.88;;;14.20;20.10;;;;;;5039554;28;20289;-62
2023/06/05 01:58:27;;;;;;;5.75;3.60;;;14.10;21.50;;;;;;5055761;28;20043;-63
2023/06/05 02:00:53;;;;;;;6.80;3.92;;;14.10;25.90;;;;;;5039313;28;20033;-63
2023/06/05 02:03:21;;;;;;;6.43;3.80;;;14.10;25.90;;;;;;5039577;28;20044;-63
2023/06/05 02:05:47;;;;;;;7.47;3.60;;;14.00;24.50;;;;;;5039414;28;20036;-63
2023/06/05 02:08:13;;;;;;;6.82;3.67;;;14.10;23.70;;;;;;5039393;28;20431;-62
2023/06/05 02:10:42;;;;;;;4.47;3.40;;;14.10;22.30;;;;;;5057230;28;20289;-62
2023/06/05 02:13:09;;;;;;;7.10;3.75;;;14.10;23.10;;;;;;5056819;28;20343;-62
2023/06/05 02:15:35;;;;;;;6.15;3.78;;;14.00;23.00;;;;;;5056626;28;20115;-62
2023/06/05 02:18:02;;;;;;;7.70;3.95;;;14.00;24.60;;;;;;5039760;28;20029;-63
2023/06/05 02:20:32;;;;;;;7.25;3.72;;;13.90;28.20;;;;;;5039525;28;20033;-63
2023/06/05 02:22:58;;;;;;;11.63;4.30;;;14.00;25.90;;;;;;5055717;28;20066;-64
2023/06/05 02:25:26;;;;;;;5.50;3.78;;;14.00;25.20;;;;;;5056530;28;20402;-63
2023/06/05 02:27:53;;;;;;;7.57;3.70;;;13.90;26.60;;;;;;5056535;28;20412;-63
2023/06/05 02:30:19;;;;;;;6.78;3.95;;;13.90;27.30;;;;;;5055713;28;20028;-62
2023/06/05 02:32:46;;;;;;;4.80;3.95;;;13.80;27.50;;;;;;5056471;28;20359;-63
2023/06/05 02:35:13;;;;;;;5.85;3.92;;;13.80;27.90;;;;;;5055755;28;20033;-62
2023/06/05 02:37:44;;;;;;;6.40;4.22;;;13.80;29.20;;;;;;5055683;28;20021;-63
2023/06/05 02:40:12;;;;;;;4.80;3.38;;;13.80;27.70;;;;;;5056220;28;20393;-64
2023/06/05 02:42:38;;;;;;;6.00;3.92;;;13.70;30.30;;;;;;5055657;28;20397;-63
2023/06/05 02:45:07;;;;;;;7.00;3.65;;;13.70;31.30;;;;;;5055438;28;20300;-62
2023/06/05 02:47:33;;;;;;;6.63;4.50;;;13.80;26.60;;;;;;5055512;28;20094;-62
2023/06/05 02:50:00;;;;;;;7.25;4.18;;;13.70;29.30;;;;;;5055421;28;20053;-62
2023/06/05 02:52:29;;;;;;;5.63;4.13;;;13.70;31.90;;;;;;5056447;28;20033;-63
2023/06/05 02:54:55;;;;;;;5.90;4.22;;;13.60;33.90;;;;;;5026383;28;20040;-62
2023/06/05 02:57:22;;;;;;;5.32;4.50;;;13.60;33.90;;;;;;5026260;28;20040;-62
2023/06/05 02:59:48;;;;;;;6.10;4.13;;;13.60;34.90;;;;;;5026396;28;20029;-62
2023/06/05 03:02:17;;;;;;;5.38;4.15;;;13.50;36.60;;;;;;5059120;28;20037;-63
2023/06/05 03:04:48;;;;;;;6.53;4.00;;;13.50;35.70;;;;;;5042854;28;20300;-62
2023/06/05 03:07:16;;;;;;;5.80;4.82;;;13.40;38.90;;;;;;5042692;28;20043;-63
2023/06/05 03:09:43;;;;;;;7.55;4.55;;;13.40;42.40;;;;;;5058983;28;20060;-63
2023/06/05 03:12:09;;;;;;;9.10;4.80;;;13.30;44.90;;;;;;5058895;28;20032;-63
2023/06/05 03:14:35;;;;;;;5.97;4.68;;;13.30;44.20;;;;;;5042390;28;20033;-63
2023/06/05 03:17:03;;;;;;;6.95;4.57;;;13.30;43.30;;;;;;5042453;28;20052;-63
2023/06/05 03:19:30;;;;;;;8.30;4.82;;;13.30;45.50;;;;;;5042594;28;20478;-63
2023/06/05 03:21:59;;;;;;;6.95;4.78;;;13.30;45.70;;;;;;5026946;28;20127;-63
2023/06/05 03:24:26;;;;;;;8.13;5.00;;;13.40;43.70;;;;;;5058779;28;20037;-63
2023/06/05 03:26:57;;;;;;;7.05;4.90;;;13.30;45.20;;;;;;5058761;28;20037;-63
2023/06/05 03:29:23;;;;;;;9.35;4.88;;;13.30;46.70;;;;;;5042290;28;20041;-63
2023/06/05 03:31:49;;;;;;;8.48;4.90;;;13.30;46.30;;;;;;5042025;28;20106;-63
2023/06/05 03:34:16;;;;;;;8.95;4.80;;;13.20;47.20;;;;;;5058479;28;20064;-63
2023/06/05 03:36:42;;;;;;;6.20;4.45;;;13.30;48.20;;;;;;5058097;28;20047;-64
2023/06/05 03:39:11;;;;;;;8.50;5.07;;;13.30;44.40;;;;;;5042001;28;20047;-64
2023/06/05 03:41:39;;;;;;;5.60;4.57;;;13.10;50.00;;;;;;5058440;28;20106;-63
2023/06/05 03:44:04;;;;;;;6.45;5.30;;;13.20;49.20;;;;;;5041526;28;20037;-63
2023/06/05 03:46:33;;;;;;;6.82;4.65;;;13.20;49.70;;;;;;5041855;28;20029;-63
2023/06/05 03:49:05;;;;;;;7.53;4.65;;;13.20;49.10;;;;;;5058238;28;20411;-64
2023/06/05 03:51:31;;;;;;;8.02;5.18;;;13.20;49.60;;;;;;5042731;28;20457;-64
2023/06/05 03:53:59;;;;;;;6.63;5.07;;;13.20;47.10;;;;;;5058239;28;20097;-64
2023/06/05 03:56:28;;;;;;;8.90;5.20;;;13.20;47.60;;;;;;5058225;28;20090;-63
2023/06/05 03:58:55;;;;;;;9.23;5.15;;;13.10;48.60;;;;;;5041938;28;20114;-64
2023/06/05 04:01:22;;;;;;;7.20;5.35;;;13.00;50.00;;;;;;5058083;28;20060;-64
2023/06/05 04:03:48;;;;;;;7.05;5.15;;;13.00;52.20;;;;;;5057284;28;20033;-64
2023/06/05 04:06:14;;;;;;;6.25;5.13;;;13.10;51.70;;;;;;5058563;28;20048;-64
2023/06/05 04:08:40;;;;;;;8.50;5.22;;;13.10;53.30;;;;;;5058021;28;20021;-64
2023/06/05 04:11:06;;;;;;;12.25;5.88;;;13.00;52.80;;;;;;5057956;28;20037;-64
2023/06/05 04:13:32;;;;;;;9.35;5.68;;;13.20;50.40;;;;;;5058674;28;20112;-64
2023/06/05 04:16:01;;;;;;;6.18;4.90;;;13.20;45.60;;;;;;5057832;28;20037;-64
2023/06/05 04:18:28;;;;;;;6.38;5.20;;;13.20;45.90;;;;;;5057675;28;20304;-63
2023/06/05 04:20:54;;;;;;;8.73;5.63;;;13.20;47.20;;;;;;5058573;28;20339;-64
2023/06/05 04:23:22;;;;;;;8.23;5.20;;;13.20;47.20;;;;;;5041103;28;20115;-64
2023/06/05 04:25:48;;;;;;;6.43;5.35;;;13.10;46.80;;;;;;5057643;28;20040;-65
2023/06/05 04:28:15;;;;;;;7.82;5.10;;;13.10;48.80;;;;;;5040993;28;20032;-64
2023/06/05 04:30:41;;;;;;;7.40;5.30;;;13.10;46.60;;;;;;5041062;28;20087;-64
2023/06/05 04:33:07;;;;;;;7.40;5.45;;;13.10;48.90;;;;;;5057394;28;20052;-64
2023/06/05 04:35:36;;;;;;;8.15;5.70;;;13.20;46.50;;;;;;5041300;28;20043;-64
2023/06/05 04:38:02;;;;;;;9.68;6.03;;;13.30;42.20;;;;;;5057612;28;20037;-64
2023/06/05 04:40:31;;;;;;;9.25;6.13;;;13.30;42.40;;;;;;5040906;28;20556;-64
2023/06/05 04:42:58;;;;;;;8.40;5.85;;;13.30;44.20;;;;;;5057159;28;20304;-64
2023/06/05 04:45:25;;;;;;;10.93;6.32;;;13.30;44.10;;;;;;5040761;28;20070;-64
2023/06/05 04:47:51;;;;;;;6.90;5.63;;;13.30;42.40;;;;;;5040464;28;20025;-64
2023/06/05 04:50:25;;;;;;;8.40;6.18;;;13.40;42.60;;;;;;5040658;28;20044;-64
2023/06/05 04:52:54;;;;;;;7.95;6.07;;;13.40;41.90;;;;;;5057226;28;20044;-64
2023/06/05 04:55:21;;;;;;;7.05;5.78;;;13.50;36.70;;;;;;5040560;28;20064;-64
2023/06/05 04:57:50;;;;;;;9.75;5.97;;;13.50;36.00;;;;;;5024641;28;20044;-65
2023/06/05 05:00:17;;;;;;;7.07;5.57;;;13.50;35.60;;;;;;5040958;28;20040;-65
2023/06/05 05:02:43;;;;;;;8.00;6.22;;;13.60;34.10;;;;;;5040367;28;20427;-64
2023/06/05 05:05:13;;;;;;;12.25;6.05;;;13.70;30.50;;;;;;5040259;28;20164;-65
2023/06/05 05:07:42;;;;;;;9.10;5.70;;;13.60;30.60;;;;;;5056753;28;20025;-65
2023/06/05 05:10:10;;;;;;;7.40;6.00;;;13.60;28.20;;;;;;5057532;28;20028;-65
2023/06/05 05:12:38;;;;;;;9.50;6.10;;;13.70;27.40;;;;;;5057486;28;20033;-65
2023/06/05 05:15:04;;;;;;;7.57;6.45;;;13.70;25.50;;;;;;5040022;28;20400;-66
2023/06/05 05:17:31;;;;;;;7.22;6.13;;;13.70;27.70;;;;;;5056812;28;20044;-66
2023/06/05 05:19:57;;;;;;;7.07;6.13;;;13.70;26.80;;;;;;5056744;28;20041;-66
2023/06/05 05:22:26;;;;;;;9.18;5.75;;;13.80;27.10;;;;;;5056535;28;20290;-65
2023/06/05 05:24:51;;;;;;;8.82;6.00;;;13.80;22.70;;;;;;5056603;28;20040;-65
2023/06/05 05:27:17;;;;;;;8.23;6.53;;;13.90;24.60;;;;;;5057709;28;20039;-65
2023/06/05 05:29:44;;;;;;;7.15;5.60;;;14.10;18.60;;;;;;5056445;28;20125;-65
2023/06/05 05:32:10;;;;;;;7.03;6.07;;;14.20;12.90;;;;;;5056591;28;20108;-65
2023/06/05 05:34:38;;;;;;;6.75;5.78;;;14.20;8.60;;;;;;5023475;28;20036;-67
2023/06/05 05:37:04;;;;;;;6.85;6.18;;;14.10;6.40;;;;;;5057407;28;20075;-65
2023/06/05 05:39:30;;;;;;;8.07;6.53;;;14.20;8.70;;;;;;5007405;28;20052;-66
2023/06/05 05:41:56;;;;;;;9.30;6.50;;;14.20;6.60;;;;;;5056089;28;20080;-65
2023/06/05 05:44:23;;;;;;;8.80;6.55;;;14.00;10.50;;;;;;5056004;28;20049;-64
2023/06/05 05:46:49;;;;;;;9.02;6.45;;;14.00;13.40;;;;;;5057034;28;20082;-65
2023/06/05 05:49:15;;;;;;;6.57;5.97;;;14.00;16.60;;;;;;5056290;28;20032;-65
2023/06/05 05:51:41;;;;;;;9.80;6.65;;;14.20;10.10;;;;;;5039756;28;20470;-65
2023/06/05 05:54:07;;;;;;;9.00;6.03;;;14.10;5.90;;;;;;5039635;28;20044;-65
2023/06/05 05:56:34;;;;;;;7.82;6.35;;;14.20;9.70;;;;;;5023164;28;20297;-65
2023/06/05 05:59:00;;;;;;;8.00;6.10;;;14.40;2.80;;;;;;5056085;28;20040;-64
2023/06/05 06:01:27;;;;;;;7.10;5.82;;;14.30;1.00;;;;;;5056729;28;20033;-64
2023/06/05 06:03:54;;;;;;;7.18;5.90;;;14.40;1.00;;;;;;5055997;28;20041;-65
2023/06/05 06:06:20;;;;;;;7.80;6.35;;;14.60;1.00;;;;;;5057178;28;20052;-64
2023/06/05 06:08:46;;;;;;;7.50;6.53;;;14.80;1.00;;;;;;5039336;28;20150;-66
2023/06/05 06:11:12;;;;;;;10.52;6.25;;;14.90;1.00;;;;;;5056005;28;20052;-64
2023/06/05 06:13:38;;;;;;;11.00;5.90;;;15.00;1.00;;;;;;5056665;28;20043;-65
2023/06/05 06:16:04;;;;;;;10.57;6.45;;;15.10;1.00;;;;;;5056953;28;20029;-65
2023/06/05 06:18:30;;;;;;;6.90;6.20;;;15.20;1.00;;;;;;5055909;28;20029;-65
2023/06/05 06:20:56;;;;;;;8.95;6.07;;;15.20;1.00;;;;;;5055992;28;20308;-64
2023/06/05 06:23:22;;;;;;;7.57;5.32;;;15.30;1.00;;;;;;5055705;28;20029;-65
2023/06/05 06:25:50;;;;;;;8.90;6.40;;;15.20;1.00;;;;;;5057083;28;20029;-64
2023/06/05 06:28:16;;;;;;;10.50;6.03;;;15.10;1.00;;;;;;5057948;28;20037;-66
2023/06/05 06:30:42;;;;;;;6.95;6.22;;;15.20;1.00;;;;;;5059952;28;20351;-65
2023/06/05 06:33:08;;;;;;;8.13;5.55;;;15.30;1.00;;;;;;5060125;28;20043;-65
2023/06/05 06:35:34;;;;;;;11.10;6.22;;;15.50;1.00;;;;;;5060823;28;20025;-63
2023/06/05 06:38:00;;;;;;;6.45;5.82;;;15.40;1.00;;;;;;5060463;28;20036;-64
2023/06/05 06:40:28;;;;;;;9.02;5.78;;;15.60;1.00;;;;;;5043314;28;20037;-64
2023/06/05 06:42:55;;;;;;;8.80;5.95;;;15.40;1.00;;;;;;5059856;28;20033;-64
2023/06/05 06:45:34;;;;;;;7.80;6.22;;;15.60;1.00;;;;;;5044972;28;20457;-65
2023/06/05 06:48:03;;;;;;;9.23;5.60;;;15.60;1.00;;;;;;5043423;28;20293;-64
2023/06/05 06:50:29;;;;;;;8.80;6.57;;;15.60;1.00;;;;;;5060930;28;20044;-64
2023/06/05 06:52:55;;;;;;;7.32;5.97;;;15.60;1.00;;;;;;5059465;28;20028;-64
2023/06/05 06:55:21;;;;;;;8.40;6.40;;;15.40;1.00;;;;;;5043083;28;20032;-64
2023/06/05 06:57:47;;;;;;;7.63;5.57;;;15.60;1.00;;;;;;5059351;28;20033;-64
2023/06/05 07:00:14;;;;;;;9.15;6.07;;;15.80;1.00;;;;;;5060553;28;20412;-64
2023/06/05 07:02:40;;;;;;;6.43;5.47;;;16.00;1.00;;;;;;5059686;28;20308;-64
2023/06/05 07:05:06;;;;;;;10.30;5.93;;;15.90;1.00;;;;;;5059962;28;20033;-64
2023/06/05 07:07:32;;;;;;;7.22;6.50;;;16.10;1.00;;;;;;5042486;28;20029;-64
2023/06/05 07:09:58;;;;;;;6.70;6.00;;;16.10;1.00;;;;;;5059077;28;20075;-64
2023/06/05 07:12:23;;;;;;;10.15;5.80;;;16.00;1.00;;;;;;5059435;28;20040;-64
2023/06/05 07:14:49;;;;;;;6.95;6.00;;;16.10;1.00;;;;;;5042278;28;20036;-64
2023/06/05 07:17:15;;;;;;;6.40;5.70;;;16.00;1.00;;;;;;5025891;28;20047;-64
2023/06/05 07:19:41;;;;;;;8.27;5.93;;;16.10;1.00;;;;;;5042352;28;20397;-64
2023/06/05 07:22:07;;;;;;;9.10;6.20;;;16.10;1.00;;;;;;5058814;28;20301;-64
2023/06/05 07:24:38;;;;;;;7.57;5.75;;;16.40;1.00;;;;;;5042470;28;20029;-64
2023/06/05 07:27:05;;;;;;;7.75;5.70;;;16.60;1.00;;;;;;5058773;28;20120;-64
2023/06/05 07:29:32;;;;;;;7.10;5.68;;;16.70;1.00;;;;;;5059548;28;20094;-64
2023/06/05 07:31:58;;;;;;;8.02;5.97;;;16.90;1.00;;;;;;5059500;28;20063;-64
2023/06/05 07:34:26;;;;;;;7.20;5.53;;;16.90;1.00;;;;;;5058614;28;20100;-64
2023/06/05 07:36:52;;;;;;;6.57;5.30;;;17.10;1.00;;;;;;5059224;28;20033;-65
2023/06/05 07:39:22;;;;;;;10.00;5.47;;;17.20;1.00;;;;;;5040634;28;20040;-64
2023/06/05 07:41:48;;;;;;;7.35;5.80;;;17.20;1.00;;;;;;5058439;28;20069;-64
2023/06/05 07:44:18;;;;;;;11.35;6.07;;;17.20;1.00;;;;;;5041721;28;20040;-64
2023/06/05 07:46:47;;;;;;;7.90;6.53;;;17.10;1.00;;;;;;5042023;28;20040;-64
2023/06/05 07:49:13;;;;;;;8.45;5.68;;;17.00;1.00;;;;;;5059124;28;20108;-64
2023/06/05 07:51:39;;;;;;;7.00;5.88;;;17.00;1.00;;;;;;5059579;28;20032;-64
2023/06/05 07:54:10;;;;;;;6.20;5.15;;;17.20;1.00;;;;;;5059017;28;20061;-64
2023/06/05 07:56:36;;;;;;;7.28;5.95;;;17.40;1.00;;;;;;5059620;28;20056;-64
2023/06/05 07:59:04;;;;;;;7.95;5.75;;;17.40;1.00;;;;;;5058324;28;20047;-64
2023/06/05 08:01:31;;;;;;;7.68;5.68;;;17.40;1.00;;;;;;5058124;28;20029;-64
2023/06/05 08:03:57;;;;;;;7.65;5.28;;;17.50;1.00;;;;;;5058068;28;20029;-64
2023/06/05 08:06:24;;;;;;;7.85;5.55;;;17.60;1.00;;;;;;5041507;28;20032;-64
2023/06/05 08:08:51;;;;;;;14.05;6.35;;;17.80;1.00;;;;;;5058127;28;20039;-64
2023/06/05 08:11:17;;;;;;;11.30;6.00;;;18.00;1.00;;;;;;5058008;28;20021;-64
2023/06/05 08:13:43;;;;;;;8.27;5.28;;;18.20;1.00;;;;;;5057767;28;20047;-64
2023/06/05 08:16:09;;;;;;;10.25;5.97;;;18.20;1.00;;;;;;5057800;28;20072;-64
2023/06/05 08:18:35;;;;;;;9.52;6.07;;;18.30;1.00;;;;;;5057818;28;20053;-64
2023/06/05 08:21:02;;;;;;;8.48;5.93;;;18.40;1.00;;;;;;5058532;28;20036;-64
2023/06/05 08:23:30;;;;;;;7.00;5.75;;;18.50;1.00;;;;;;5041257;28;20415;-64
2023/06/05 08:25:56;;;;;;;7.68;5.30;;;18.50;1.00;;;;;;5057799;28;20044;-64
2023/06/05 08:28:23;;;;;;;15.05;5.97;;;18.60;1.00;;;;;;5058397;28;20037;-64
2023/06/05 08:30:51;;;;;;;7.30;5.43;;;18.60;1.00;;;;;;5041082;28;20125;-64
2023/06/05 08:33:19;;;;;;;10.30;5.95;;;18.60;1.00;;;;;;5058397;28;20037;-65
2023/06/05 08:35:45;;;;;;;8.10;5.90;;;18.50;1.00;;;;;;5041018;28;20048;-64
2023/06/05 08:38:11;;;;;;;7.85;5.85;;;18.70;1.00;;;;;;5057515;28;20025;-64
2023/06/05 08:40:39;;;;;;;7.03;5.50;;;18.70;1.00;;;;;;5058013;28;20315;-64
2023/06/05 08:43:05;;;;;;;9.60;6.00;;;18.70;1.00;;;;;;5057311;28;20029;-64
2023/06/05 08:45:32;;;;;;;9.77;5.63;;;18.80;1.00;;;;;;5057889;28;20035;-64
2023/06/05 08:48:02;;;;;;;6.43;5.43;;;19.00;1.00;;;;;;5057403;28;20035;-64
2023/06/05 08:50:30;;;;;;;7.47;5.57;;;19.20;1.00;;;;;;5057828;28;20032;-64
2023/06/05 08:52:59;;;;;;;6.38;5.60;;;19.20;1.00;;;;;;5057612;28;20404;-64
2023/06/05 08:55:26;;;;;;;11.95;5.43;;;19.40;1.00;;;;;;5057142;28;20142;-64
2023/06/05 08:57:52;;;;;;;7.78;5.53;;;19.40;99.90;;;;;;5057141;28;20385;-64
2023/06/05 09:00:18;;;;;;;7.72;4.80;;;19.60;99.90;;;;;;5041122;28;20033;-64
2023/06/05 09:02:47;;;;;;;9.60;5.57;;;19.70;99.90;;;;;;5040791;28;20040;-64
2023/06/05 09:05:17;;;;;;;10.02;5.93;;;19.90;99.90;;;;;;5056886;28;20037;-64
2023/06/05 09:07:43;;;;;;;6.90;5.47;;;20.00;99.90;;;;;;5040211;28;20021;-64
2023/06/05 09:10:30;;;;;;;8.35;6.05;;;19.90;99.90;;;;;;5040346;28;20067;-64
2023/06/05 09:13:00;;;;;;;7.95;5.70;;;19.90;99.90;;;;;;5057643;28;20025;-64
2023/06/05 09:15:31;;;;;;;8.95;5.78;;;19.90;99.90;;;;;;5056752;28;20029;-64
2023/06/05 09:18:08;;;;;;;7.72;5.65;;;19.90;99.90;;;;;;5056705;28;20312;-64
2023/06/05 09:20:36;;;;;;;9.23;5.50;;;19.80;99.90;;;;;;5056789;28;20067;-64
2023/06/05 09:23:02;;;;;;;7.18;5.80;;;20.10;67.40;;;;;;5057306;28;20399;-64
2023/06/05 09:25:48;;;;;;;7.53;5.18;;;20.20;1.00;;;;;;5057253;28;20025;-65
2023/06/05 09:28:18;;;;;;;6.75;5.25;;;20.40;1.00;;;;;;5057309;28;20055;-64
2023/06/05 09:31:01;;;;;;;9.10;5.32;;;20.30;1.00;;;;;;5057298;28;20029;-63
2023/06/05 09:33:34;;;;;;;11.20;5.03;;;20.50;1.00;;;;;;5057193;28;20270;-63
2023/06/05 09:36:13;;;;;;;7.30;5.50;;;20.60;1.00;;;;;;5056556;28;20033;-63
2023/06/05 09:38:40;;;;;;;8.02;5.30;;;20.60;1.00;;;;;;5057236;28;20111;-63
2023/06/05 09:41:11;;;;;;;7.75;5.60;;;20.90;1.00;;;;;;5056960;28;20041;-64
2023/06/05 09:43:38;;;;;;;7.50;5.55;;;21.00;1.00;;;;;;5057068;28;20049;-64
2023/06/05 09:46:14;;;;;;;8.65;5.55;;;21.10;1.00;;;;;;5040116;28;20052;-64
2023/06/05 09:48:41;;;;;;;5.97;5.30;;;21.10;99.90;;;;;;5056279;28;20031;-64
2023/06/05 09:51:15;;;;;;;6.53;4.88;;;21.00;1.00;;;;;;5039657;28;20029;-64
2023/06/05 09:53:45;;;;;;;8.60;5.50;;;20.80;99.90;;;;;;5056977;28;20040;-64
2023/06/05 09:56:16;;;;;;;7.30;5.40;;;21.10;29.40;;;;;;5057477;28;20033;-65
2023/06/05 09:58:48;;;;;;;8.18;6.07;;;21.20;1.00;;;;;;5056127;28;20029;-64
2023/06/05 10:01:23;;;;;;;6.60;4.40;;;21.40;99.90;;;;;;5057407;28;20036;-66
2023/06/05 10:03:59;;;;;;;6.38;4.70;;;21.40;1.00;;;;;;5056236;28;20045;-64
2023/06/05 10:06:28;;;;;;;5.85;4.53;;;21.60;1.00;;;;;;5056159;28;20300;-65
2023/06/05 10:08:57;;;;;;;8.25;5.03;;;21.80;1.00;;;;;;5056874;28;20277;-64
2023/06/05 10:11:26;;;;;;;6.60;5.05;;;21.90;99.90;;;;;;5056783;28;20033;-64
2023/06/05 10:13:52;;;;;;;6.85;4.20;;;21.90;1.00;;;;;;5055792;28;20059;-64
2023/06/05 10:16:19;;;;;;;5.35;4.40;;;22.20;1.00;;;;;;5039700;28;20411;-65
2023/06/05 10:18:49;;;;;;;7.15;5.00;;;22.40;1.00;;;;;;5039278;28;20292;-64
2023/06/05 10:21:19;;;;;;;5.63;4.72;;;22.60;81.40;;;;;;5056576;28;20056;-64
2023/06/05 10:24:17;;;;;;;6.65;5.53;;;22.70;1.00;;;;;;5056589;28;20047;-64
2023/06/05 10:26:56;;;;;;;7.63;5.43;;;22.70;1.00;;;;;;5055897;28;20400;-64
2023/06/05 10:29:52;;;;;;;6.30;4.53;;;22.50;99.90;;;;;;5056755;28;20049;-65
2023/06/05 10:32:41;;;;;;;10.80;5.03;;;22.50;1.00;;;;;;5056630;28;20399;-65
2023/06/05 10:35:15;;;;;;;6.95;5.28;;;22.50;99.90;;;;;;5055992;28;20037;-65
2023/06/05 10:38:23;;;;;;;7.30;4.68;;;22.80;99.90;;;;;;5056640;28;20305;-63
2023/06/05 10:41:00;;;;;;;7.93;4.55;;;23.00;1.00;;;;;;5044517;28;20320;-65
2023/06/05 10:43:32;;;;;;;6.43;5.30;;;23.20;1.00;;;;;;5055575;28;20037;-65
2023/06/05 10:46:00;;;;;;;7.88;4.60;;;23.30;1.00;;;;;;5055794;28;20025;-65
2023/06/05 10:49:03;;;;;;;5.65;4.38;;;23.40;1.00;;;;;;5056322;28;20033;-65
2023/06/05 10:51:37;;;;;;;5.88;4.32;;;23.70;1.00;;;;;;5056532;28;20025;-64
2023/06/05 10:54:05;;;;;;;5.72;4.50;;;24.00;99.90;;;;;;5056994;28;20288;-65
2023/06/05 10:57:01;;;;;;;6.40;4.28;;;24.00;99.90;;;;;;5055790;28;20051;-66
2023/06/05 10:59:38;;;;;;;5.60;4.15;;;24.00;99.90;;;;;;5056343;28;20029;-65
2023/06/05 11:02:15;;;;;;;4.93;3.80;;;24.40;99.90;;;;;;5055484;28;20098;-64
2023/06/05 11:04:47;;;;;;;8.48;4.95;;;24.60;99.90;;;;;;5055558;28;20037;-65
2023/06/05 11:07:21;;;;;;;9.40;4.40;;;25.80;99.90;;;;;;5055589;28;20040;-65
2023/06/05 11:10:22;;;;;;;5.63;3.90;;;27.30;1.00;;;;;;5056312;28;20032;-65
2023/06/05 11:12:51;;;;;;;6.22;3.80;;;28.70;99.90;;;;;;5044670;28;20447;-66
2023/06/05 11:15:34;;;;;;;6.38;3.78;;;30.30;1.00;;;;;;5059824;28;20239;-65
2023/06/05 11:18:31;;;;;;;7.28;3.80;;;30.90;99.90;;;;;;5060026;28;20090;-65
2023/06/05 11:20:57;;;;;;;4.93;3.55;;;31.30;99.90;;;;;;5060118;28;20280;-65
2023/06/05 11:23:27;;;;;;;5.15;4.10;;;31.30;99.90;;;;;;5059648;28;20404;-65
2023/06/05 11:25:56;;;;;;;5.93;3.97;;;32.30;99.90;;;;;;5059076;28;20029;-65
2023/06/05 11:28:43;;;;;;;4.20;3.78;;;33.30;99.90;;;;;;5042525;28;20040;-65
2023/06/05 11:31:09;;;;;;;4.97;3.67;;;32.40;99.90;;;;;;5059964;28;20044;-65
2023/06/05 11:33:35;;;;;;;6.20;4.22;;;32.40;99.90;;;;;;5059512;28;20044;-66
2023/06/05 11:36:06;;;;;;;5.93;4.63;;;33.30;99.90;;;;;;5058822;28;20388;-65
2023/06/05 11:38:33;;;;;;;4.95;3.72;;;34.10;92.60;;;;;;5059647;28;20037;-66
2023/06/05 11:40:59;;;;;;;6.55;3.60;;;33.60;61.20;;;;;;5059264;28;20128;-65
2023/06/05 11:43:25;;;;;;;7.20;3.83;;;34.20;76.30;;;;;;5059254;28;20120;-66
2023/06/05 11:45:56;;;;;;;5.90;3.50;;;35.20;43.90;;;;;;5059207;28;20037;-65
2023/06/05 11:48:22;;;;;;;7.03;4.10;;;35.40;1.00;;;;;;5041916;28;20047;-65
2023/06/05 11:50:52;;;;;;;4.80;4.13;;;35.50;1.00;;;;;;5041866;28;20079;-66
2023/06/05 11:53:18;;;;;;;5.00;4.30;;;35.90;1.00;;;;;;5059389;28;20037;-66
2023/06/05 11:56:06;;;;;;;8.30;3.92;;;36.10;1.00;;;;;;5059131;28;20044;-65
2023/06/05 11:58:34;;;;;;;6.68;4.13;;;36.50;1.00;;;;;;5058015;28;20041;-65
2023/06/05 12:01:12;;;;;;;6.43;4.25;;;36.00;1.00;;;;;;5058950;28;20067;-65
2023/06/05 12:03:39;;;;;;;6.53;4.22;;;35.50;1.00;;;;;;5041389;28;20292;-65
2023/06/05 12:06:05;;;;;;;6.18;3.78;;;35.40;1.00;;;;;;5041525;28;20033;-65
2023/06/05 12:08:32;;;;;;;4.47;3.45;;;35.60;1.00;;;;;;5041563;28;20036;-65
2023/06/05 12:10:59;;;;;;;6.60;3.75;;;35.60;1.00;;;;;;5058063;28;20380;-65
2023/06/05 12:13:56;;;;;;;6.28;3.85;;;34.60;1.00;;;;;;5057753;28;20462;-65
2023/06/05 12:16:34;;;;;;;6.82;3.85;;;35.20;1.00;;;;;;5057930;28;20309;-65
2023/06/05 12:19:01;;;;;;;10.48;3.92;;;36.20;1.00;;;;;;5058633;28;20336;-65
2023/06/05 12:21:28;;;;;;;8.75;4.47;;;36.70;1.00;;;;;;5058492;28;20120;-66
2023/06/05 12:24:05;;;;;;;8.65;4.47;;;35.90;1.00;;;;;;5058271;28;20040;-65
2023/06/05 12:26:53;;;;;;;5.45;3.90;;;36.20;1.00;;;;;;5040420;28;20025;-65
2023/06/05 12:29:23;;;;;;;6.03;4.18;;;36.20;1.00;;;;;;5057523;28;20029;-65
2023/06/05 12:31:51;;;;;;;4.10;3.70;;;37.20;1.00;;;;;;5058449;28;20021;-65
2023/06/05 12:34:18;;;;;;;4.28;3.58;;;37.50;1.00;;;;;;5057436;28;20044;-66
2023/06/05 12:36:45;;;;;;;6.20;3.85;;;37.30;1.00;;;;;;5041112;28;20041;-66
2023/06/05 12:39:15;;;;;;;6.78;4.40;;;37.10;1.00;;;;;;5041012;28;20037;-65
2023/06/05 12:41:42;;;;;;;5.00;3.57;;;38.00;1.00;;;;;;5058185;28;20097;-65
2023/06/05 12:44:08;;;;;;;5.35;3.60;;;39.10;1.00;;;;;;5057084;28;20295;-65
2023/06/05 12:46:35;;;;;;;6.18;3.17;;;39.00;1.00;;;;;;5057402;28;20037;-65
2023/06/05 12:49:05;;;;;;;6.13;3.58;;;39.50;1.00;;;;;;5057993;28;20036;-65
2023/06/05 12:51:31;;;;;;;4.97;3.60;;;40.30;1.00;;;;;;5058078;28;20025;-66
2023/06/05 12:53:58;;;;;;;7.63;3.88;;;38.80;1.00;;;;;;5057823;28;20108;-66
2023/06/05 12:56:26;;;;;;;7.10;4.50;;;38.80;1.00;;;;;;5057809;28;20039;-65
2023/06/05 12:58:56;;;;;;;9.15;4.10;;;38.00;1.00;;;;;;5057007;28;20048;-65
2023/06/05 13:01:23;;;;;;;6.70;4.40;;;37.10;1.00;;;;;;5057737;28;20132;-65